Time;durP1;ratioP1;P1;durP2;ratioP2;P2;SDS_P1;SDS_P2;PMS_P1;PMS_P2;Temp;Humidity;BMP_temperature;BMP_pressure;BME280_temperature;BME280_humidity;BME280_pressure;Samples;Min_cycle;Max_cycle;Signal;HPM_P1;HPM_P2
2023/09/22 00:00:24;;;;;;;2.83;1.08;;;20.90;58.60;;;;;;5093330;28;20202;-60
2023/09/22 00:02:53;;;;;;;1.73;0.90;;;20.80;58.50;;;;;;5092987;28;20252;-60
2023/09/22 00:08:30;;;;;;;2.15;0.60;;;20.90;58.60;;;;;;5093096;28;20694;-61
2023/09/22 00:11:05;;;;;;;2.35;0.90;;;20.90;58.60;;;;;;5092713;28;20218;-61
2023/09/22 00:13:32;;;;;;;1.67;0.90;;;20.80;58.50;;;;;;5092480;28;20209;-60
2023/09/22 00:16:00;;;;;;;1.50;1.08;;;20.90;58.60;;;;;;5092845;28;20217;-58
2023/09/22 00:18:28;;;;;;;1.77;0.90;;;20.80;58.50;;;;;;5093073;28;20193;-60
2023/09/22 00:20:56;;;;;;;1.08;0.70;;;20.80;58.50;;;;;;5092618;28;20217;-64
2023/09/22 00:23:23;;;;;;;1.73;0.82;;;20.80;59.10;;;;;;5092574;28;20202;-59
2023/09/22 00:25:51;;;;;;;2.28;0.98;;;20.80;58.50;;;;;;5092864;28;20209;-61
2023/09/22 00:28:18;;;;;;;1.55;0.82;;;20.80;58.40;;;;;;5092699;28;20193;-60
2023/09/22 00:30:46;;;;;;;1.45;0.88;;;20.90;58.50;;;;;;5092861;28;20217;-60
2023/09/22 00:33:13;;;;;;;2.40;0.70;;;20.80;58.40;;;;;;5092376;28;20218;-59
2023/09/22 00:35:42;;;;;;;2.42;0.82;;;20.70;58.30;;;;;;5092568;28;20198;-62
2023/09/22 00:38:10;;;;;;;1.73;0.90;;;20.80;58.40;;;;;;5092658;28;20186;-61
2023/09/22 00:40:38;;;;;;;1.15;0.73;;;20.80;58.40;;;;;;5092453;28;20186;-60
2023/09/22 00:43:09;;;;;;;2.40;0.70;;;20.80;58.30;;;;;;5092042;28;20201;-59
2023/09/22 00:45:40;;;;;;;2.20;0.70;;;20.80;58.30;;;;;;5092367;28;20194;-62
2023/09/22 00:48:08;;;;;;;1.20;0.80;;;20.80;58.30;;;;;;5092445;28;20222;-60
2023/09/22 00:50:36;;;;;;;0.77;0.60;;;20.80;58.30;;;;;;5091955;28;20282;-63
2023/09/22 00:53:05;;;;;;;0.60;0.50;;;20.80;58.40;;;;;;5092034;28;20217;-61
2023/09/22 00:55:32;;;;;;;1.60;0.90;;;20.80;58.40;;;;;;5096908;28;20278;-63
2023/09/22 00:58:00;;;;;;;3.38;0.90;;;20.80;58.30;;;;;;5112835;28;20309;-60
2023/09/22 01:00:28;;;;;;;1.13;0.60;;;20.80;58.30;;;;;;5111520;28;20200;-62
2023/09/22 01:02:56;;;;;;;1.15;0.70;;;20.80;58.30;;;;;;5112590;28;20224;-61
2023/09/22 01:05:23;;;;;;;1.30;0.73;;;20.80;58.30;;;;;;5112528;28;20189;-61
2023/09/22 01:07:51;;;;;;;1.77;0.82;;;20.70;58.20;;;;;;5112803;28;20220;-56
2023/09/22 01:10:21;;;;;;;1.48;0.80;;;20.80;58.30;;;;;;5112683;28;20222;-58
2023/09/22 01:12:49;;;;;;;0.90;0.77;;;20.90;58.40;;;;;;5112008;28;20216;-61
2023/09/22 01:15:17;;;;;;;3.15;0.65;;;20.70;58.20;;;;;;5112592;28;20217;-62
2023/09/22 01:17:44;;;;;;;1.38;0.52;;;20.70;58.10;;;;;;5112649;28;20221;-56
2023/09/22 01:20:12;;;;;;;2.90;0.70;;;20.80;58.30;;;;;;5112379;28;20192;-58
2023/09/22 01:22:40;;;;;;;0.88;0.70;;;20.80;58.20;;;;;;5112176;28;20217;-63
2023/09/22 01:25:09;;;;;;;1.20;0.63;;;20.80;58.30;;;;;;5112386;28;20198;-51
2023/09/22 01:27:45;;;;;;;1.15;0.65;;;20.70;58.10;;;;;;5112567;28;20209;-58
2023/09/22 01:30:45;;;;;;;3.75;0.80;;;20.70;58.10;;;;;;5112426;28;20271;-62
2023/09/22 01:33:13;;;;;;;1.10;0.70;;;20.80;58.20;;;;;;5076773;28;20250;-58
2023/09/22 01:35:41;;;;;;;1.67;0.82;;;20.80;58.20;;;;;;5116352;28;20185;-60
2023/09/22 01:38:15;;;;;;;1.58;0.80;;;20.80;58.30;;;;;;5116603;28;20186;-64
2023/09/22 01:40:43;;;;;;;0.77;0.65;;;20.70;58.10;;;;;;5116214;28;20189;-61
2023/09/22 01:43:11;;;;;;;0.85;0.68;;;20.70;58.10;;;;;;5116212;28;20186;-59
2023/09/22 01:45:39;;;;;;;1.25;0.75;;;20.70;58.10;;;;;;5116272;28;20181;-60
2023/09/22 01:48:08;;;;;;;2.42;0.70;;;20.70;58.10;;;;;;5115914;28;20539;-61
2023/09/22 01:50:37;;;;;;;2.75;0.90;;;20.70;58.10;;;;;;5116273;28;20280;-58
2023/09/22 01:53:05;;;;;;;0.60;0.57;;;20.70;58.10;;;;;;5115913;28;20213;-54
2023/09/22 01:55:35;;;;;;;0.60;0.50;;;20.60;57.90;;;;;;5115702;28;20220;-62
2023/09/22 01:58:04;;;;;;;1.10;0.60;;;20.70;58.00;;;;;;5116170;28;20220;-62
2023/09/22 02:00:33;;;;;;;1.95;0.80;;;20.70;58.70;;;;;;5115737;28;20189;-61
2023/09/22 02:03:00;;;;;;;1.52;0.82;;;20.70;58.00;;;;;;5115365;28;20589;-64
2023/09/22 02:05:28;;;;;;;1.25;0.70;;;20.70;58.10;;;;;;5115780;28;20250;-60
2023/09/22 02:07:55;;;;;;;3.25;0.90;;;20.70;58.00;;;;;;5115869;28;20223;-63
2023/09/22 02:10:23;;;;;;;1.48;0.70;;;20.70;58.00;;;;;;5115307;28;20193;-64
2023/09/22 02:12:52;;;;;;;0.98;0.60;;;20.70;58.00;;;;;;5115489;28;20217;-58
2023/09/22 02:15:19;;;;;;;0.85;0.60;;;20.70;58.00;;;;;;5115599;28;20217;-59
2023/09/22 02:17:47;;;;;;;1.40;0.60;;;20.70;58.00;;;;;;5115903;28;20228;-60
2023/09/22 02:20:22;;;;;;;1.95;1.00;;;20.70;58.00;;;;;;5115441;28;20200;-58
2023/09/22 02:22:50;;;;;;;1.70;0.77;;;20.70;58.00;;;;;;5115326;28;20311;-57
2023/09/22 02:25:19;;;;;;;0.75;0.50;;;20.70;58.00;;;;;;5115127;28;20181;-60
2023/09/22 02:27:48;;;;;;;1.48;0.68;;;20.70;58.00;;;;;;5115344;28;20220;-63
2023/09/22 02:30:17;;;;;;;1.65;0.82;;;20.70;58.00;;;;;;5115431;28;20185;-60
2023/09/22 02:32:48;;;;;;;1.00;0.75;;;20.70;57.90;;;;;;5115119;28;20219;-61
2023/09/22 02:35:15;;;;;;;2.20;0.75;;;20.70;58.00;;;;;;5115023;28;20300;-58
2023/09/22 02:37:43;;;;;;;0.73;0.57;;;20.70;57.90;;;;;;5115465;28;20598;-59
2023/09/22 02:40:13;;;;;;;1.13;0.50;;;20.60;57.80;;;;;;5114682;28;20182;-60
2023/09/22 02:42:40;;;;;;;0.90;0.65;;;20.60;57.90;;;;;;5113926;28;20304;-57
2023/09/22 02:45:10;;;;;;;0.77;0.60;;;20.70;57.90;;;;;;5113330;28;20189;-58
2023/09/22 02:48:04;;;;;;;1.48;0.70;;;20.60;57.80;;;;;;5113779;28;20213;-59
2023/09/22 02:53:34;;;;;;;1.77;0.80;;;20.70;57.90;;;;;;5088640;28;20200;-59
2023/09/22 02:56:05;;;;;;;1.10;0.70;;;20.70;57.80;;;;;;5114300;28;20308;-62
2023/09/22 02:58:34;;;;;;;0.80;0.60;;;20.70;57.80;;;;;;5110808;28;20243;-60
2023/09/22 03:01:02;;;;;;;0.90;0.70;;;20.60;57.80;;;;;;5110848;28;20589;-60
2023/09/22 03:03:32;;;;;;;3.75;0.60;;;20.60;57.70;;;;;;5114046;28;20732;-59
2023/09/22 03:06:00;;;;;;;1.15;0.50;;;20.70;57.80;;;;;;5114805;28;20185;-50
2023/09/22 03:08:29;;;;;;;0.88;0.55;;;20.60;57.70;;;;;;5114781;28;20185;-60
2023/09/22 03:10:57;;;;;;;1.50;0.65;;;20.60;57.70;;;;;;5114528;28;20193;-61
2023/09/22 03:13:24;;;;;;;3.33;0.80;;;20.60;57.70;;;;;;5113839;28;20783;-59
2023/09/22 03:15:52;;;;;;;2.15;0.90;;;20.60;57.70;;;;;;5114277;28;20647;-62
2023/09/22 03:18:19;;;;;;;1.23;0.60;;;20.60;57.60;;;;;;5114571;28;20227;-60
2023/09/22 03:20:48;;;;;;;1.15;0.70;;;20.60;57.70;;;;;;5114150;28;20697;-56
2023/09/22 03:23:16;;;;;;;0.90;0.65;;;20.70;57.70;;;;;;5113899;28;20231;-56
2023/09/22 03:25:44;;;;;;;1.13;0.60;;;20.60;57.60;;;;;;5113847;28;20193;-61
2023/09/22 03:28:11;;;;;;;1.48;0.63;;;20.60;57.60;;;;;;5114702;28;20248;-61
2023/09/22 03:30:39;;;;;;;0.90;0.60;;;20.60;57.60;;;;;;5114316;28;20188;-58
2023/09/22 03:33:07;;;;;;;1.00;0.60;;;20.60;57.50;;;;;;5113713;28;20224;-58
2023/09/22 03:35:36;;;;;;;1.10;0.50;;;20.60;57.60;;;;;;5113833;28;20224;-58
2023/09/22 03:38:09;;;;;;;1.33;0.82;;;20.60;57.50;;;;;;5113941;28;20214;-62
2023/09/22 03:40:41;;;;;;;2.75;0.77;;;20.60;57.50;;;;;;5113665;28;20562;-62
2023/09/22 03:43:08;;;;;;;1.92;0.70;;;20.60;57.50;;;;;;5113960;28;20229;-61
2023/09/22 03:45:36;;;;;;;1.80;0.60;;;20.60;57.50;;;;;;5113718;28;20201;-58
2023/09/22 03:48:05;;;;;;;0.63;0.47;;;20.50;57.40;;;;;;5113655;28;20213;-62
2023/09/22 03:50:32;;;;;;;1.95;0.70;;;20.60;57.50;;;;;;5114028;28;20220;-59
2023/09/22 03:53:01;;;;;;;0.90;0.40;;;20.50;57.40;;;;;;5113523;28;20213;-61
2023/09/22 03:55:31;;;;;;;0.93;0.50;;;20.50;57.30;;;;;;5107873;28;20637;-59
2023/09/22 03:57:59;;;;;;;2.03;0.80;;;20.60;57.40;;;;;;5113455;28;20214;-60
2023/09/22 04:00:28;;;;;;;1.58;0.68;;;20.60;57.30;;;;;;5105102;28;20197;-59
2023/09/22 04:02:55;;;;;;;1.25;0.70;;;20.50;57.30;;;;;;5092998;28;20312;-54
2023/09/22 04:05:22;;;;;;;0.73;0.60;;;20.60;57.30;;;;;;5093434;28;20424;-61
2023/09/22 04:10:51;;;;;;;2.08;0.68;;;20.50;57.20;;;;;;5086569;28;20194;-62
2023/09/22 04:13:19;;;;;;;1.25;0.73;;;20.50;57.20;;;;;;5093009;28;20249;-56
2023/09/22 04:15:46;;;;;;;1.45;0.70;;;20.50;57.20;;;;;;5092615;28;20221;-58
2023/09/22 04:18:14;;;;;;;1.58;0.70;;;20.50;57.20;;;;;;5093127;28;20214;-60
2023/09/22 04:20:47;;;;;;;1.90;0.47;;;20.50;57.20;;;;;;5092658;28;20186;-59
2023/09/22 04:23:14;;;;;;;1.58;0.70;;;20.50;57.20;;;;;;5092028;28;20240;-58
2023/09/22 04:25:42;;;;;;;1.20;0.60;;;20.50;57.20;;;;;;5093083;28;20182;-60
2023/09/22 04:28:13;;;;;;;1.38;0.77;;;20.50;57.20;;;;;;5092852;28;20218;-58
2023/09/22 04:30:40;;;;;;;0.95;0.50;;;20.50;57.20;;;;;;5092655;28;20196;-62
2023/09/22 04:33:08;;;;;;;4.43;0.70;;;20.50;57.10;;;;;;5092152;28;20222;-59
2023/09/22 04:35:37;;;;;;;0.88;0.50;;;20.50;57.10;;;;;;5092240;28;20220;-57
2023/09/22 04:38:08;;;;;;;1.58;0.70;;;20.50;57.20;;;;;;5092533;28;20214;-61
2023/09/22 04:40:36;;;;;;;0.90;0.50;;;20.50;57.10;;;;;;5092803;28;20193;-63
2023/09/22 04:43:05;;;;;;;2.55;0.90;;;20.50;57.10;;;;;;5092201;28;20296;-61
2023/09/22 04:45:39;;;;;;;0.60;0.57;;;20.50;57.10;;;;;;5092442;28;20186;-61
2023/09/22 04:48:07;;;;;;;0.60;0.50;;;20.50;57.10;;;;;;5092263;28;20726;-62
2023/09/22 04:50:35;;;;;;;2.65;0.80;;;20.50;57.00;;;;;;5092284;28;20186;-58
2023/09/22 04:53:02;;;;;;;0.90;0.70;;;20.50;57.00;;;;;;5091762;28;20213;-60
2023/09/22 04:55:34;;;;;;;1.95;0.70;;;20.50;57.00;;;;;;5103999;28;20233;-61
2023/09/22 04:58:02;;;;;;;1.13;0.50;;;20.50;57.00;;;;;;5112980;28;20632;-62
2023/09/22 05:00:33;;;;;;;0.93;0.60;;;20.50;57.00;;;;;;5112088;28;20185;-60
2023/09/22 05:03:02;;;;;;;2.25;0.52;;;20.40;56.90;;;;;;5112535;28;20216;-56
2023/09/22 05:05:30;;;;;;;0.65;0.60;;;20.50;57.00;;;;;;5112356;28;20651;-60
2023/09/22 05:07:58;;;;;;;0.63;0.60;;;20.50;57.00;;;;;;5111140;28;20300;-57
2023/09/22 05:10:25;;;;;;;0.60;0.50;;;20.50;57.00;;;;;;5112609;28;20185;-62
2023/09/22 05:12:53;;;;;;;0.60;0.50;;;20.40;56.80;;;;;;5112053;28;20263;-60
2023/09/22 05:15:21;;;;;;;2.60;0.57;;;20.40;56.90;;;;;;5112432;28;20205;-60
2023/09/22 05:17:48;;;;;;;3.05;0.60;;;20.40;56.80;;;;;;5112698;28;20209;-62
2023/09/22 05:20:20;;;;;;;2.30;0.70;;;20.50;56.90;;;;;;5112501;28;20264;-63
2023/09/22 05:22:48;;;;;;;0.90;0.60;;;20.40;56.80;;;;;;5111802;28;20213;-60
2023/09/22 05:25:33;;;;;;;0.93;0.75;;;20.40;56.80;;;;;;5112240;28;20689;-58
2023/09/22 05:28:00;;;;;;;0.70;0.70;;;20.40;56.80;;;;;;5112724;28;20217;-60
2023/09/22 05:30:28;;;;;;;2.72;0.60;;;20.40;56.70;;;;;;5111989;28;20281;-59
2023/09/22 05:32:55;;;;;;;1.08;0.70;;;20.40;56.80;;;;;;5111899;28;20213;-60
2023/09/22 05:35:24;;;;;;;0.95;0.60;;;20.40;56.80;;;;;;5112382;28;20220;-58
2023/09/22 05:37:52;;;;;;;1.60;0.68;;;20.40;56.70;;;;;;5112414;28;20220;-62
2023/09/22 05:40:19;;;;;;;1.05;0.50;;;20.40;56.70;;;;;;5111934;28;20260;-60
2023/09/22 05:42:47;;;;;;;0.93;0.60;;;20.40;56.70;;;;;;5112466;28;20221;-62
2023/09/22 05:45:14;;;;;;;2.67;0.80;;;20.40;56.80;;;;;;5112102;28;20196;-62
2023/09/22 05:47:41;;;;;;;0.85;0.60;;;20.40;56.70;;;;;;5112386;28;20217;-58
2023/09/22 05:50:12;;;;;;;0.82;0.70;;;20.40;56.80;;;;;;5112332;28;20197;-62
2023/09/22 05:52:41;;;;;;;1.08;0.70;;;20.40;56.70;;;;;;5091212;28;20221;-59
2023/09/22 05:55:10;;;;;;;1.40;0.60;;;20.40;56.70;;;;;;5091291;28;20237;-57
2023/09/22 05:57:37;;;;;;;1.10;0.50;;;20.40;56.70;;;;;;5091772;28;20272;-63
2023/09/22 06:00:15;;;;;;;0.77;0.55;;;20.40;56.70;;;;;;5091696;28;20218;-62
2023/09/22 06:02:46;;;;;;;2.50;1.00;;;20.40;56.70;;;;;;5091444;28;20305;-62
2023/09/22 06:05:14;;;;;;;0.55;0.50;;;20.40;56.70;;;;;;5091588;28;20191;-63
2023/09/22 06:07:43;;;;;;;1.20;0.60;;;20.40;56.70;;;;;;5091389;28;20631;-59
2023/09/22 06:10:11;;;;;;;1.15;0.50;;;20.40;56.70;;;;;;5091451;28;20190;-63
2023/09/22 06:12:38;;;;;;;1.42;0.75;;;20.40;56.70;;;;;;5091477;28;20276;-54
2023/09/22 06:15:07;;;;;;;0.80;0.60;;;20.40;56.60;;;;;;5091470;28;20221;-62
2023/09/22 06:17:35;;;;;;;0.93;0.70;;;20.40;56.70;;;;;;5110365;28;20221;-58
2023/09/22 06:20:08;;;;;;;1.48;0.50;;;20.40;56.60;;;;;;5113368;28;20716;-55
2023/09/22 06:22:36;;;;;;;0.93;0.60;;;20.30;56.60;;;;;;5114932;28;20224;-58
2023/09/22 06:25:05;;;;;;;1.27;0.60;;;20.40;56.60;;;;;;5115385;28;20215;-61
2023/09/22 06:27:33;;;;;;;0.95;0.75;;;20.40;56.60;;;;;;5114921;28;20236;-61
2023/09/22 06:30:00;;;;;;;2.75;0.73;;;20.30;56.60;;;;;;5115474;28;20268;-63
2023/09/22 06:32:28;;;;;;;2.20;0.70;;;20.40;56.70;;;;;;5115201;28;20353;-60
2023/09/22 06:34:56;;;;;;;0.80;0.57;;;20.40;56.60;;;;;;5115753;28;20217;-60
2023/09/22 06:37:24;;;;;;;1.10;0.70;;;20.40;56.60;;;;;;5113501;28;20247;-50
2023/09/22 06:39:54;;;;;;;0.63;0.60;;;20.40;56.60;;;;;;5113012;28;20877;-62
2023/09/22 06:42:23;;;;;;;1.30;0.57;;;20.40;56.60;;;;;;5096041;27;20301;-52
2023/09/22 06:44:51;;;;;;;1.65;0.60;;;20.40;56.70;;;;;;5102323;27;20285;-64
2023/09/22 06:47:20;;;;;;;0.90;0.63;;;20.30;56.50;;;;;;5089437;28;20214;-49
2023/09/22 06:49:52;;;;;;;0.80;0.60;;;20.40;56.60;;;;;;5092072;28;20223;-52
2023/09/22 06:52:19;;;;;;;1.23;0.57;;;20.40;56.60;;;;;;5100074;28;20222;-53
2023/09/22 06:54:47;;;;;;;0.57;0.55;;;20.30;56.50;;;;;;5076116;28;20222;-54
2023/09/22 06:57:14;;;;;;;5.50;0.70;;;20.40;56.70;;;;;;5084601;28;20699;-54
2023/09/22 06:59:45;;;;;;;3.10;0.60;;;20.40;56.80;;;;;;5081119;28;20272;-62
2023/09/22 07:02:12;;;;;;;1.00;0.60;;;20.40;56.80;;;;;;5068149;28;20190;-56
2023/09/22 07:04:40;;;;;;;3.55;0.90;;;20.50;56.90;;;;;;5069495;28;20202;-63
2023/09/22 07:07:10;;;;;;;1.52;0.80;;;20.50;56.90;;;;;;5086693;28;20190;-56
2023/09/22 07:09:41;;;;;;;1.60;0.90;;;20.60;57.10;;;;;;5086651;28;20193;-61
2023/09/22 07:12:08;;;;;;;1.98;0.80;;;20.60;57.20;;;;;;5079157;28;20216;-58
2023/09/22 07:14:36;;;;;;;4.60;0.80;;;20.70;57.00;;;;;;5084740;28;20198;-60
2023/09/22 07:17:05;;;;;;;2.15;0.55;;;20.70;56.80;;;;;;5081155;28;20253;-56
2023/09/22 07:19:34;;;;;;;1.45;0.88;;;20.80;56.80;;;;;;5109908;28;20193;-55
2023/09/22 07:22:08;;;;;;;0.60;0.40;;;20.90;56.60;;;;;;5099879;28;20784;-59
2023/09/22 07:24:57;;;;;;;0.88;0.60;;;21.00;56.40;;;;;;5100125;28;20254;-54
2023/09/22 07:27:25;;;;;;;1.77;1.05;;;21.20;56.30;;;;;;5073663;28;20201;-59
2023/09/22 07:29:52;;;;;;;3.60;0.80;;;21.30;56.20;;;;;;5112593;28;20204;-55
2023/09/22 07:32:21;;;;;;;1.45;0.70;;;21.30;55.90;;;;;;5094996;28;20610;-61
2023/09/22 07:34:50;;;;;;;5.65;0.70;;;21.50;55.80;;;;;;5089411;28;20199;-59
2023/09/22 07:37:18;;;;;;;1.42;0.57;;;21.50;55.50;;;;;;5099230;28;20197;-60
2023/09/22 07:39:48;;;;;;;4.70;0.70;;;21.50;55.40;;;;;;5088254;28;20630;-59
2023/09/22 07:42:15;;;;;;;1.75;0.70;;;21.60;55.30;;;;;;5084148;28;20198;-59
2023/09/22 07:44:46;;;;;;;1.90;0.77;;;21.70;55.30;;;;;;5088842;28;20210;-57
2023/09/22 07:47:14;;;;;;;1.45;0.60;;;21.70;55.00;;;;;;5091529;28;20655;-60
2023/09/22 07:49:43;;;;;;;6.78;0.60;;;21.70;54.90;;;;;;5081497;28;20829;-59
2023/09/22 07:52:10;;;;;;;1.63;0.68;;;21.80;55.00;;;;;;5080413;28;20186;-59
2023/09/22 07:54:38;;;;;;;2.00;0.60;;;21.70;54.80;;;;;;5071596;28;20244;-56
2023/09/22 07:57:05;;;;;;;0.57;0.47;;;21.80;54.90;;;;;;5104541;28;20304;-53
2023/09/22 07:59:32;;;;;;;2.50;0.40;;;21.80;54.80;;;;;;5110843;28;20220;-60
2023/09/22 08:02:01;;;;;;;2.38;0.75;;;21.90;54.70;;;;;;5097989;28;20190;-58
2023/09/22 08:04:29;;;;;;;2.63;0.60;;;21.90;54.70;;;;;;5091029;28;20218;-53
2023/09/22 08:06:59;;;;;;;5.10;0.80;;;21.90;54.60;;;;;;5089322;28;20198;-59
2023/09/22 08:09:27;;;;;;;3.88;0.70;;;21.90;54.50;;;;;;5100540;28;20651;-59
2023/09/22 08:14:39;;;;;;;1.15;0.73;;;21.90;54.40;;;;;;5096134;28;20232;-56
2023/09/22 08:17:07;;;;;;;2.65;0.82;;;21.90;54.30;;;;;;5109093;27;20210;-55
2023/09/22 08:19:36;;;;;;;13.20;0.98;;;21.90;54.30;;;;;;5111531;28;20213;-57
2023/09/22 08:22:05;;;;;;;4.10;0.55;;;21.90;54.10;;;;;;5111486;28;20272;-59
2023/09/22 08:24:32;;;;;;;3.83;0.90;;;21.90;54.10;;;;;;5105202;28;20225;-54
2023/09/22 08:27:00;;;;;;;9.18;0.85;;;22.00;54.10;;;;;;5086267;28;20193;-58
2023/09/22 08:29:28;;;;;;;3.10;0.70;;;22.00;53.90;;;;;;5083224;28;20279;-60
2023/09/22 08:31:58;;;;;;;2.10;0.90;;;21.90;53.80;;;;;;5099924;28;20196;-59
2023/09/22 08:34:26;;;;;;;2.15;0.90;;;22.00;54.00;;;;;;5107980;28;20767;-55
2023/09/22 08:36:54;;;;;;;3.70;0.95;;;22.00;54.00;;;;;;5110216;28;20561;-58
2023/09/22 08:39:22;;;;;;;2.70;0.88;;;22.00;54.10;;;;;;5109306;28;20220;-50
2023/09/22 08:41:50;;;;;;;6.10;1.10;;;22.00;54.20;;;;;;5096520;28;20238;-57
2023/09/22 08:44:18;;;;;;;7.10;0.80;;;22.00;54.10;;;;;;5095050;28;20213;-57
2023/09/22 08:46:46;;;;;;;2.97;0.75;;;22.00;54.10;;;;;;5109985;28;20273;-58
2023/09/22 08:49:14;;;;;;;3.55;0.98;;;22.10;54.40;;;;;;5116794;27;20298;-57
2023/09/22 08:51:42;;;;;;;2.25;1.00;;;22.10;54.40;;;;;;5109631;27;20197;-53
2023/09/22 08:54:11;;;;;;;5.57;0.80;;;22.20;54.40;;;;;;5100464;28;20228;-53
2023/09/22 08:56:40;;;;;;;6.03;0.90;;;22.10;54.30;;;;;;5089731;28;20211;-60
2023/09/22 08:59:08;;;;;;;3.65;0.90;;;22.20;54.40;;;;;;5090430;28;20220;-60
2023/09/22 09:01:35;;;;;;;3.88;1.00;;;22.10;54.30;;;;;;5089558;28;20202;-57
2023/09/22 09:04:29;;;;;;;4.20;0.90;;;22.20;54.30;;;;;;5088882;28;20220;-60
2023/09/22 09:06:57;;;;;;;2.67;0.80;;;22.20;54.30;;;;;;5090117;28;20194;-58
2023/09/22 09:09:24;;;;;;;2.10;0.80;;;22.20;54.30;;;;;;5089982;28;20343;-58
2023/09/22 09:12:03;;;;;;;2.08;0.63;;;22.20;54.10;;;;;;5077822;28;20350;-56
2023/09/22 09:14:31;;;;;;;5.88;1.05;;;22.20;54.50;;;;;;5085765;28;20245;-54
2023/09/22 09:16:58;;;;;;;8.70;1.20;;;22.20;54.00;;;;;;5084852;28;20264;-54
2023/09/22 09:19:27;;;;;;;9.88;1.20;;;22.30;54.30;;;;;;5076860;28;20214;-56
2023/09/22 09:22:05;;;;;;;4.50;0.93;;;22.20;54.20;;;;;;5086216;28;20222;-56
2023/09/22 09:24:33;;;;;;;3.38;0.70;;;22.20;54.20;;;;;;5081561;28;20245;-58
2023/09/22 09:27:01;;;;;;;3.85;0.90;;;22.20;54.10;;;;;;5088174;28;20751;-63
2023/09/22 09:29:28;;;;;;;6.20;0.85;;;22.20;54.20;;;;;;5084236;28;20217;-64
2023/09/22 09:32:00;;;;;;;3.72;0.98;;;22.10;54.20;;;;;;5083357;28;20237;-56
2023/09/22 09:34:39;;;;;;;3.80;0.93;;;22.00;54.40;;;;;;5081638;28;20214;-62
2023/09/22 09:37:13;;;;;;;4.97;1.10;;;22.00;54.50;;;;;;5088687;28;20213;-62
2023/09/22 09:39:48;;;;;;;5.57;1.08;;;21.90;54.60;;;;;;5087109;28;20229;-63
2023/09/22 09:42:19;;;;;;;5.90;0.90;;;21.90;54.70;;;;;;5079123;28;20276;-62
2023/09/22 09:44:50;;;;;;;4.53;1.25;;;21.80;54.80;;;;;;5089901;28;20568;-62
2023/09/22 09:47:23;;;;;;;3.58;0.85;;;21.80;54.80;;;;;;5069935;28;20194;-59
2023/09/22 09:49:53;;;;;;;2.22;0.80;;;21.80;54.80;;;;;;5077773;28;20191;-57
2023/09/22 09:52:24;;;;;;;6.43;1.05;;;21.70;54.70;;;;;;5085509;28;20611;-60
2023/09/22 09:54:59;;;;;;;2.67;1.10;;;21.70;54.70;;;;;;5081668;28;20261;-61
2023/09/22 09:57:30;;;;;;;3.90;1.00;;;21.70;54.90;;;;;;5093062;28;20263;-54
2023/09/22 09:59:57;;;;;;;1.73;0.90;;;21.80;55.00;;;;;;5093013;28;20232;-63
2023/09/22 10:02:27;;;;;;;1.92;1.00;;;21.70;54.80;;;;;;5083034;28;20199;-61
2023/09/22 10:04:57;;;;;;;2.08;0.68;;;21.70;54.80;;;;;;5090121;28;20233;-63
2023/09/22 10:07:25;;;;;;;2.88;0.90;;;21.70;54.90;;;;;;5087402;28;20230;-51
2023/09/22 10:09:52;;;;;;;1.80;0.90;;;21.70;55.00;;;;;;5091048;28;20273;-60
2023/09/22 10:12:19;;;;;;;1.42;0.65;;;21.70;54.90;;;;;;5092340;28;20309;-59
2023/09/22 10:14:51;;;;;;;3.97;1.05;;;21.60;54.90;;;;;;5085919;28;20194;-58
2023/09/22 10:17:22;;;;;;;3.53;1.00;;;21.70;55.00;;;;;;5092404;28;20321;-59
2023/09/22 10:19:49;;;;;;;2.67;1.58;;;21.60;54.90;;;;;;5092839;28;20201;-55
2023/09/22 10:22:16;;;;;;;4.03;0.70;;;21.50;54.80;;;;;;5093123;28;20222;-58
2023/09/22 10:24:43;;;;;;;2.97;1.10;;;21.60;54.90;;;;;;5093506;28;20194;-59
2023/09/22 10:27:13;;;;;;;2.70;0.80;;;21.60;54.90;;;;;;5084978;28;20223;-54
2023/09/22 10:29:51;;;;;;;3.05;1.13;;;21.60;54.90;;;;;;5094002;28;20240;-56
2023/09/22 10:32:26;;;;;;;4.57;0.80;;;21.60;54.90;;;;;;5093275;28;20217;-58
2023/09/22 10:34:54;;;;;;;1.60;1.10;;;21.50;54.80;;;;;;5084193;28;20568;-57
2023/09/22 10:37:22;;;;;;;2.45;0.85;;;21.50;54.80;;;;;;5078067;28;20235;-56
2023/09/22 10:39:53;;;;;;;5.50;0.90;;;21.60;54.90;;;;;;5094037;28;20278;-55
2023/09/22 10:42:22;;;;;;;2.63;0.93;;;21.60;54.90;;;;;;5096419;28;20224;-58
2023/09/22 10:45:00;;;;;;;2.28;1.02;;;21.60;54.80;;;;;;5088394;28;20194;-50
2023/09/22 10:47:39;;;;;;;3.97;1.08;;;21.50;54.80;;;;;;5079953;28;20930;-53
2023/09/22 10:50:21;;;;;;;2.85;1.00;;;21.60;54.70;;;;;;5088247;28;20281;-50
2023/09/22 10:52:55;;;;;;;2.85;0.82;;;21.60;54.80;;;;;;5087955;28;20221;-53
2023/09/22 10:55:29;;;;;;;1.85;0.80;;;21.50;54.80;;;;;;5089826;28;20275;-50
2023/09/22 10:57:56;;;;;;;1.75;0.80;;;21.50;54.80;;;;;;5086750;28;20305;-53
2023/09/22 11:00:24;;;;;;;1.83;0.82;;;21.50;54.80;;;;;;5093832;28;20233;-56
2023/09/22 11:02:53;;;;;;;3.00;0.95;;;21.60;54.90;;;;;;5091770;28;20313;-57
2023/09/22 11:05:20;;;;;;;2.47;0.98;;;21.50;54.80;;;;;;5089364;28;20206;-53
2023/09/22 11:07:47;;;;;;;1.73;0.80;;;21.40;54.80;;;;;;5089856;28;20773;-54
2023/09/22 11:10:21;;;;;;;7.63;1.02;;;21.50;54.90;;;;;;5092807;28;20244;-58
2023/09/22 11:12:51;;;;;;;3.17;0.98;;;21.50;55.00;;;;;;5092412;28;20210;-57
2023/09/22 11:15:19;;;;;;;2.92;0.70;;;21.50;54.90;;;;;;5092903;28;20277;-58
2023/09/22 11:17:49;;;;;;;3.75;0.80;;;21.50;54.80;;;;;;5092556;28;20608;-54
2023/09/22 11:20:23;;;;;;;1.25;0.70;;;21.40;54.80;;;;;;5092506;28;20201;-52
2023/09/22 11:22:52;;;;;;;1.77;0.70;;;21.40;54.80;;;;;;5091802;28;20741;-56
2023/09/22 11:25:19;;;;;;;2.97;0.82;;;21.50;54.90;;;;;;5092046;28;20232;-51
2023/09/22 11:27:47;;;;;;;1.45;0.70;;;21.40;54.80;;;;;;5104501;28;20297;-59
2023/09/22 11:30:16;;;;;;;2.65;0.90;;;21.40;54.80;;;;;;5092251;28;20190;-59
2023/09/22 11:32:44;;;;;;;2.72;0.95;;;21.50;55.00;;;;;;5092068;28;20249;-56
2023/09/22 11:35:26;;;;;;;1.77;0.93;;;21.30;54.90;;;;;;5092709;28;20634;-57
2023/09/22 11:37:55;;;;;;;4.25;0.90;;;21.40;55.00;;;;;;5091956;28;20329;-55
2023/09/22 11:40:25;;;;;;;2.15;0.80;;;21.40;54.90;;;;;;5092151;28;20226;-56
2023/09/22 11:42:52;;;;;;;1.75;0.75;;;21.40;54.90;;;;;;5110005;28;21159;-56
2023/09/22 11:45:22;;;;;;;1.55;0.70;;;21.40;54.90;;;;;;5087344;28;20194;-55
2023/09/22 11:47:50;;;;;;;2.65;0.88;;;21.40;54.90;;;;;;5100387;28;20486;-54
2023/09/22 11:50:25;;;;;;;1.80;0.82;;;21.30;54.80;;;;;;5088851;28;20202;-57
2023/09/22 11:53:07;;;;;;;4.32;1.10;;;21.30;54.80;;;;;;5089999;28;20228;-54
2023/09/22 11:55:34;;;;;;;3.00;0.82;;;21.40;55.00;;;;;;5087141;28;20226;-57
2023/09/22 11:58:05;;;;;;;2.30;0.88;;;21.40;54.90;;;;;;5078938;28;20226;-53
2023/09/22 12:00:32;;;;;;;3.08;1.08;;;21.40;55.00;;;;;;5089243;28;20197;-55
2023/09/22 12:02:59;;;;;;;1.48;0.85;;;21.30;54.70;;;;;;5091760;28;20218;-53
2023/09/22 12:05:26;;;;;;;1.65;0.80;;;21.30;54.80;;;;;;5091901;28;20193;-53
2023/09/22 12:07:55;;;;;;;6.88;1.20;;;21.30;54.80;;;;;;5088361;28;20221;-53
2023/09/22 12:10:22;;;;;;;1.98;0.80;;;21.30;55.50;;;;;;5090833;28;20288;-56
2023/09/22 12:12:49;;;;;;;1.75;0.82;;;21.30;54.90;;;;;;5090841;28;20222;-55
2023/09/22 12:15:17;;;;;;;1.92;0.73;;;21.30;54.90;;;;;;5091819;28;20194;-50
2023/09/22 12:17:45;;;;;;;2.20;0.90;;;21.30;54.90;;;;;;5099620;28;20226;-52
2023/09/22 12:20:13;;;;;;;3.20;1.05;;;21.30;54.90;;;;;;5087217;28;20197;-53
2023/09/22 12:22:40;;;;;;;2.78;0.90;;;21.30;54.90;;;;;;5087301;28;20301;-53
2023/09/22 12:25:09;;;;;;;3.80;1.13;;;21.30;54.90;;;;;;5088480;28;20195;-54
2023/09/22 12:27:41;;;;;;;4.47;1.58;;;21.30;54.90;;;;;;5089313;28;20217;-53
2023/09/22 12:30:11;;;;;;;2.35;1.00;;;21.30;54.90;;;;;;5089074;28;20186;-55
2023/09/22 12:32:39;;;;;;;1.88;0.95;;;21.40;55.00;;;;;;5089052;28;20213;-53
2023/09/22 12:35:07;;;;;;;2.50;0.90;;;21.30;55.00;;;;;;5090702;28;20591;-53
2023/09/22 12:37:34;;;;;;;2.80;1.15;;;21.40;55.00;;;;;;5091276;28;20321;-53
2023/09/22 12:40:03;;;;;;;3.50;1.10;;;21.40;55.00;;;;;;5087645;28;20740;-56
2023/09/22 12:42:32;;;;;;;3.00;1.10;;;21.40;54.90;;;;;;5098318;28;20290;-55
2023/09/22 12:45:00;;;;;;;1.73;0.90;;;21.30;54.80;;;;;;5090287;28;20205;-50
2023/09/22 12:47:29;;;;;;;1.52;0.95;;;21.40;54.90;;;;;;5089840;28;20218;-53
2023/09/22 12:49:56;;;;;;;2.47;0.90;;;21.30;54.80;;;;;;5090923;28;20186;-57
2023/09/22 12:52:23;;;;;;;4.75;1.30;;;21.40;54.90;;;;;;5090617;28;20301;-56
2023/09/22 12:54:53;;;;;;;3.10;1.10;;;21.50;55.00;;;;;;5082271;28;20738;-58
2023/09/22 12:57:21;;;;;;;2.90;1.00;;;21.40;54.90;;;;;;5082780;28;20317;-51
2023/09/22 12:59:49;;;;;;;1.00;0.70;;;21.40;54.90;;;;;;5090311;28;20194;-53
2023/09/22 13:02:16;;;;;;;1.80;0.93;;;21.40;54.70;;;;;;5089536;28;20224;-54
2023/09/22 13:04:46;;;;;;;5.15;1.27;;;21.40;54.80;;;;;;5089822;28;20557;-48
2023/09/22 13:07:15;;;;;;;6.70;1.20;;;21.50;54.90;;;;;;5083370;28;20218;-55
2023/09/22 13:09:42;;;;;;;3.13;0.80;;;21.50;54.90;;;;;;5089733;28;20730;-54